createdAt,value
2023-10-21T00:01:40.042Z,6.90
2023-10-21T00:04:07.188Z,6.70
2023-10-21T00:06:35.297Z,7.20
2023-10-21T00:09:02.407Z,8.60
2023-10-21T00:11:29.714Z,7.70
2023-10-21T00:13:58.092Z,7.20
2023-10-21T00:16:25.230Z,7.60
2023-10-21T00:18:52.202Z,7.40
2023-10-21T00:21:19.290Z,8.60
2023-10-21T00:23:46.428Z,7.00
2023-10-21T00:26:13.512Z,7.00
2023-10-21T00:28:41.347Z,6.10
2023-10-21T00:31:08.325Z,7.30
2023-10-21T00:33:36.117Z,6.40
2023-10-21T00:36:04.699Z,6.90
2023-10-21T00:38:31.716Z,6.60
2023-10-21T00:40:58.706Z,6.50
2023-10-21T00:43:43.011Z,6.60
2023-10-21T00:46:16.749Z,7.10
2023-10-21T00:48:44.242Z,7.00
2023-10-21T00:51:11.626Z,6.70
2023-10-21T00:53:38.903Z,7.90
2023-10-21T00:56:09.207Z,7.90
2023-10-21T00:58:36.706Z,7.80
2023-10-21T01:01:09.104Z,8.00
2023-10-21T01:03:36.982Z,7.40
2023-10-21T01:06:04.611Z,8.30
2023-10-21T01:08:42.953Z,9.20
2023-10-21T01:11:12.391Z,8.10
2023-10-21T01:13:39.841Z,7.20
2023-10-21T01:16:06.685Z,7.30
2023-10-21T01:18:35.016Z,7.30
2023-10-21T01:21:03.563Z,6.10
2023-10-21T01:23:31.403Z,6.80
2023-10-21T01:25:58.461Z,6.40
2023-10-21T01:28:25.924Z,6.70
2023-10-21T01:30:53.167Z,6.20
2023-10-21T01:33:20.255Z,5.40
2023-10-21T01:35:47.797Z,6.50
2023-10-21T01:38:15.947Z,6.80
2023-10-21T01:40:43.205Z,6.90
2023-10-21T01:43:10.244Z,6.40
2023-10-21T01:45:38.020Z,5.80
2023-10-21T01:48:06.239Z,7.40
2023-10-21T01:50:33.138Z,8.30
2023-10-21T01:53:00.063Z,7.00
2023-10-21T01:55:27.026Z,6.80
2023-10-21T01:57:53.960Z,7.50
2023-10-21T02:00:21.234Z,7.70
2023-10-21T02:02:51.951Z,7.50
2023-10-21T02:05:20.015Z,6.30
2023-10-21T02:07:47.482Z,7.20
2023-10-21T02:10:14.409Z,8.10
2023-10-21T02:12:41.581Z,7.80
2023-10-21T02:15:18.514Z,8.20
2023-10-21T02:17:45.654Z,7.70
2023-10-21T02:20:13.807Z,6.50
2023-10-21T02:22:40.827Z,6.70
2023-10-21T02:25:13.843Z,7.00
2023-10-21T02:27:42.222Z,6.70
2023-10-21T02:30:11.687Z,6.80
2023-10-21T02:32:38.708Z,7.80
2023-10-21T02:35:06.601Z,7.00
2023-10-21T02:37:33.528Z,7.30
2023-10-21T02:40:00.591Z,8.10
2023-10-21T02:42:27.467Z,7.30
2023-10-21T02:44:54.315Z,7.80
2023-10-21T02:47:21.407Z,7.90
2023-10-21T02:49:48.658Z,6.80
2023-10-21T02:52:15.726Z,7.90
2023-10-21T02:54:42.661Z,7.60
2023-10-21T02:57:09.840Z,7.00
2023-10-21T02:59:36.910Z,7.40
2023-10-21T03:02:04.138Z,7.00
2023-10-21T03:04:31.274Z,6.10
2023-10-21T03:06:58.301Z,7.10
2023-10-21T03:09:26.730Z,6.40
2023-10-21T03:11:54.422Z,6.70
2023-10-21T03:14:21.805Z,6.80
2023-10-21T03:16:49.579Z,6.30
2023-10-21T03:19:16.708Z,5.90
2023-10-21T03:21:45.902Z,6.80
2023-10-21T03:24:13.170Z,5.80
2023-10-21T03:26:40.223Z,6.20
2023-10-21T03:29:09.877Z,6.40
2023-10-21T03:31:38.536Z,7.50
2023-10-21T03:34:05.654Z,6.20
2023-10-21T03:36:32.681Z,5.70
2023-10-21T03:38:59.647Z,5.80
2023-10-21T03:41:26.886Z,6.00
2023-10-21T03:43:53.840Z,6.00
2023-10-21T03:46:22.372Z,5.90
2023-10-21T03:48:49.509Z,6.70
2023-10-21T03:51:16.718Z,7.30
2023-10-21T03:53:47.059Z,6.30
2023-10-21T03:56:13.947Z,5.80
2023-10-21T03:58:41.526Z,6.40
2023-10-21T04:01:08.710Z,6.90
2023-10-21T04:03:36.293Z,6.40
2023-10-21T04:06:03.300Z,6.80
2023-10-21T04:08:30.749Z,5.70
2023-10-21T04:10:57.688Z,6.00
2023-10-21T04:13:25.697Z,5.90
2023-10-21T04:15:52.776Z,5.90
2023-10-21T04:18:19.950Z,6.60
2023-10-21T04:20:47.326Z,5.60
2023-10-21T04:23:14.466Z,6.50
2023-10-21T04:25:41.414Z,5.90
2023-10-21T04:28:08.399Z,5.40
2023-10-21T04:30:35.919Z,6.10
2023-10-21T04:33:03.144Z,6.30
2023-10-21T04:35:30.210Z,5.70
2023-10-21T04:37:58.579Z,5.80
2023-10-21T04:40:25.647Z,5.60
2023-10-21T04:42:52.589Z,5.60
2023-10-21T04:45:19.544Z,5.60
2023-10-21T04:47:46.490Z,5.40
2023-10-21T04:50:13.421Z,6.10
2023-10-21T04:52:40.874Z,6.00
2023-10-21T04:55:08.418Z,6.40
2023-10-21T04:57:35.380Z,6.70
2023-10-21T05:00:04.253Z,6.40
2023-10-21T05:02:31.436Z,5.70
2023-10-21T05:04:58.579Z,5.90
2023-10-21T05:07:25.501Z,5.10
2023-10-21T05:09:52.467Z,6.40
2023-10-21T05:12:20.332Z,6.30
2023-10-21T05:14:47.236Z,5.20
2023-10-21T05:17:14.398Z,4.70
2023-10-21T05:19:41.460Z,4.80
2023-10-21T05:22:08.496Z,5.40
2023-10-21T05:24:35.886Z,5.20
2023-10-21T05:27:03.650Z,5.50
2023-10-21T05:29:31.179Z,4.40
2023-10-21T05:31:58.525Z,4.80
2023-10-21T05:34:25.657Z,4.70
2023-10-21T05:36:52.736Z,4.90
2023-10-21T05:39:19.929Z,3.90
2023-10-21T05:41:47.227Z,4.50
2023-10-21T05:44:14.196Z,4.90
2023-10-21T05:46:41.200Z,5.90
2023-10-21T05:49:08.300Z,5.50
2023-10-21T05:51:35.231Z,4.90
2023-10-21T05:54:02.376Z,5.60
2023-10-21T05:56:29.359Z,5.30
2023-10-21T05:58:56.149Z,5.80
2023-10-21T06:01:23.191Z,6.10
2023-10-21T06:03:50.312Z,5.80
2023-10-21T06:06:18.070Z,5.10
2023-10-21T06:08:45.583Z,6.20
2023-10-21T06:11:13.127Z,5.30
2023-10-21T06:13:40.283Z,5.30
2023-10-21T06:16:07.643Z,4.90
2023-10-21T06:18:34.747Z,5.60
2023-10-21T06:21:01.655Z,4.90
2023-10-21T06:23:28.897Z,4.70
2023-10-21T06:25:56.181Z,5.20
2023-10-21T06:28:24.293Z,4.90
2023-10-21T06:30:51.461Z,4.70
2023-10-21T06:33:18.778Z,4.40
2023-10-21T06:35:45.974Z,4.60
2023-10-21T06:38:12.902Z,4.40
2023-10-21T06:40:52.494Z,4.10
2023-10-21T06:43:25.926Z,5.00
2023-10-21T06:45:53.181Z,4.40
2023-10-21T06:48:20.197Z,5.00
2023-10-21T06:50:47.064Z,4.80
2023-10-21T06:53:15.038Z,4.50
2023-10-21T06:55:45.378Z,4.80
2023-10-21T06:58:12.618Z,4.60
2023-10-21T07:00:39.557Z,4.20
2023-10-21T07:03:06.946Z,4.00
2023-10-21T07:05:34.808Z,4.10
2023-10-21T07:08:02.560Z,4.20
2023-10-21T07:10:31.550Z,4.40
2023-10-21T07:12:58.810Z,4.80
2023-10-21T07:15:28.695Z,4.00
2023-10-21T07:17:57.447Z,5.30
2023-10-21T07:20:26.653Z,6.20
2023-10-21T07:22:54.274Z,5.60
2023-10-21T07:25:21.302Z,6.00
2023-10-21T07:27:48.567Z,5.70
2023-10-21T07:30:16.027Z,6.50
2023-10-21T07:32:43.607Z,6.20
2023-10-21T07:35:10.662Z,5.50
2023-10-21T07:37:38.189Z,5.20
2023-10-21T07:40:07.518Z,5.40
2023-10-21T07:42:34.445Z,5.30
2023-10-21T07:45:01.623Z,4.70
2023-10-21T07:47:28.737Z,5.70
2023-10-21T07:49:56.392Z,5.00
2023-10-21T07:52:23.689Z,5.10
2023-10-21T07:54:50.768Z,5.20
2023-10-21T07:57:18.038Z,5.10
2023-10-21T07:59:45.598Z,5.60
2023-10-21T08:02:13.751Z,5.40
2023-10-21T08:04:41.186Z,6.30
2023-10-21T08:07:08.596Z,5.20
2023-10-21T08:09:37.226Z,5.10
2023-10-21T08:12:04.297Z,4.40
2023-10-21T08:14:32.998Z,5.00
2023-10-21T08:17:01.279Z,4.60
2023-10-21T08:19:29.986Z,4.40
2023-10-21T08:21:58.241Z,4.60
2023-10-21T08:24:25.266Z,4.60
2023-10-21T08:26:52.274Z,4.60
2023-10-21T08:29:20.744Z,4.50
2023-10-21T08:31:48.051Z,4.50
2023-10-21T08:34:15.301Z,4.10
2023-10-21T08:36:42.346Z,4.70
2023-10-21T08:39:10.565Z,4.40
2023-10-21T08:41:40.544Z,5.10
2023-10-21T08:44:08.421Z,5.30
2023-10-21T08:46:38.529Z,5.00
2023-10-21T08:49:05.949Z,3.40
2023-10-21T08:51:34.011Z,4.20
2023-10-21T08:54:03.922Z,4.30
2023-10-21T08:56:31.724Z,4.40
2023-10-21T08:58:58.780Z,4.90
2023-10-21T09:01:25.774Z,4.40
2023-10-21T09:03:53.055Z,4.60
2023-10-21T09:06:20.793Z,4.00
2023-10-21T09:08:48.740Z,4.90
2023-10-21T09:11:21.489Z,4.90
2023-10-21T09:13:49.769Z,4.90
2023-10-21T09:16:21.290Z,5.10
2023-10-21T09:18:57.981Z,4.80
2023-10-21T09:21:35.014Z,5.40
2023-10-21T09:24:03.574Z,4.50
2023-10-21T09:26:35.001Z,3.90
2023-10-21T09:29:06.774Z,4.10
2023-10-21T09:31:53.919Z,4.20
2023-10-21T09:34:30.347Z,4.90
2023-10-21T09:37:02.694Z,4.60
2023-10-21T09:39:41.216Z,4.80
2023-10-21T09:42:09.452Z,4.70
2023-10-21T09:44:36.993Z,4.20
2023-10-21T09:47:08.072Z,5.20
2023-10-21T09:49:39.768Z,5.20
2023-10-21T09:52:16.551Z,4.20
2023-10-21T09:54:45.499Z,4.60
2023-10-21T09:57:13.293Z,4.70
2023-10-21T09:59:40.590Z,4.60
2023-10-21T10:02:07.807Z,4.80
2023-10-21T10:04:36.495Z,4.70
2023-10-21T10:07:07.108Z,4.10
2023-10-21T10:09:40.600Z,4.40
2023-10-21T10:12:17.037Z,4.60
2023-10-21T10:14:44.227Z,5.20
2023-10-21T10:17:14.318Z,5.30
2023-10-21T10:19:44.358Z,5.10
2023-10-21T10:22:21.814Z,4.90
2023-10-21T10:24:56.529Z,5.10
2023-10-21T10:27:37.862Z,4.70
2023-10-21T10:30:20.346Z,4.80
2023-10-21T10:32:50.857Z,5.00
2023-10-21T10:35:31.158Z,4.70
2023-10-21T10:38:02.404Z,5.00
2023-10-21T10:40:36.937Z,3.90
2023-10-21T10:43:06.664Z,4.70
2023-10-21T10:45:34.062Z,4.20
2023-10-21T10:48:02.913Z,4.70
2023-10-21T10:50:37.516Z,5.10
2023-10-21T10:53:14.604Z,4.80
2023-10-21T10:55:43.825Z,4.60
2023-10-21T10:58:12.437Z,5.00
2023-10-21T11:00:42.288Z,4.90
2023-10-21T11:03:09.651Z,4.50
2023-10-21T11:05:41.204Z,4.30
2023-10-21T11:08:09.884Z,4.70
2023-10-21T11:10:38.158Z,5.40
2023-10-21T11:13:05.912Z,4.40
2023-10-21T11:15:33.545Z,6.10
2023-10-21T11:18:05.479Z,5.00
2023-10-21T11:20:32.889Z,5.10
2023-10-21T11:23:10.580Z,6.30
2023-10-21T11:25:37.535Z,4.90
2023-10-21T11:28:06.261Z,5.50
2023-10-21T11:30:36.239Z,4.80
2023-10-21T11:33:11.230Z,4.60
2023-10-21T11:35:42.319Z,4.60
2023-10-21T11:38:09.521Z,4.70
2023-10-21T11:40:36.934Z,5.10
2023-10-21T11:43:07.103Z,4.40
2023-10-21T11:45:34.209Z,4.80
2023-10-21T11:48:01.759Z,4.90
2023-10-21T11:50:34.621Z,4.60
2023-10-21T11:53:03.638Z,5.10
2023-10-21T11:55:50.013Z,4.30
2023-10-21T11:58:42.991Z,13.50
2023-10-21T12:01:31.679Z,29.80
2023-10-21T12:04:01.489Z,38.30
2023-10-21T12:06:31.570Z,53.70
2023-10-21T12:09:17.572Z,68.00
2023-10-21T12:12:07.589Z,52.30
2023-10-21T12:14:52.972Z,33.60
2023-10-21T12:17:26.275Z,25.00
2023-10-21T12:19:56.024Z,11.20
2023-10-21T12:22:25.928Z,8.50
2023-10-21T12:25:11.865Z,7.20
2023-10-21T12:27:41.826Z,5.40
2023-10-21T12:30:28.565Z,5.80
2023-10-21T12:33:14.842Z,6.00
2023-10-21T12:35:53.761Z,5.50
2023-10-21T12:38:23.997Z,5.40
2023-10-21T12:41:09.673Z,5.90
2023-10-21T12:43:37.161Z,4.90
2023-10-21T12:46:30.404Z,6.00
2023-10-21T12:49:06.938Z,5.30
2023-10-21T12:51:42.141Z,5.20
2023-10-21T12:54:14.690Z,4.50
2023-10-21T12:56:42.650Z,5.30
2023-10-21T12:59:09.790Z,5.40
2023-10-21T13:01:39.122Z,5.10
2023-10-21T13:04:06.622Z,5.40
2023-10-21T13:06:34.277Z,5.40
2023-10-21T13:09:01.620Z,5.60
2023-10-21T13:11:29.118Z,4.80
2023-10-21T13:13:56.081Z,5.60
2023-10-21T13:16:23.890Z,5.00
2023-10-21T13:18:52.050Z,5.30
2023-10-21T13:21:19.628Z,5.40
2023-10-21T13:23:46.950Z,4.60
2023-10-21T13:26:14.058Z,4.30
2023-10-21T13:28:41.412Z,5.30
2023-10-21T13:31:08.997Z,4.80
2023-10-21T13:33:36.264Z,5.00
2023-10-21T13:36:06.809Z,5.20
2023-10-21T13:38:33.798Z,5.10
2023-10-21T13:41:00.766Z,5.00
2023-10-21T13:43:27.730Z,5.80
2023-10-21T13:45:54.688Z,5.50
2023-10-21T13:48:21.793Z,5.60
2023-10-21T13:50:54.157Z,5.40
2023-10-21T13:53:26.788Z,4.90
2023-10-21T13:55:57.299Z,4.70
2023-10-21T13:58:24.211Z,5.20
2023-10-21T14:00:51.219Z,4.80
2023-10-21T14:03:25.890Z,5.80
2023-10-21T14:05:55.573Z,4.90
2023-10-21T14:08:26.434Z,4.70
2023-10-21T14:10:57.061Z,5.50
2023-10-21T14:13:32.897Z,5.40
2023-10-21T14:16:00.079Z,5.20
2023-10-21T14:18:28.984Z,5.80
2023-10-21T14:20:56.125Z,5.40
2023-10-21T14:23:24.372Z,4.30
2023-10-21T14:25:54.254Z,5.90
2023-10-21T14:28:21.959Z,5.60
2023-10-21T14:30:50.534Z,5.00
2023-10-21T14:33:22.106Z,5.80
2023-10-21T14:38:16.808Z,5.60
2023-10-21T14:40:44.457Z,5.30
2023-10-21T14:43:15.164Z,5.80
2023-10-21T14:45:43.796Z,6.10
2023-10-21T14:48:11.372Z,6.00
2023-10-21T14:50:39.714Z,6.30
2023-10-21T14:53:08.978Z,5.90
2023-10-21T14:55:51.828Z,6.10
2023-10-21T14:58:26.054Z,5.10
2023-10-21T15:00:53.797Z,6.00
2023-10-21T15:03:22.117Z,6.30
2023-10-21T15:05:49.774Z,5.30
2023-10-21T15:08:21.508Z,5.70
2023-10-21T15:13:16.137Z,6.50
2023-10-21T15:15:43.743Z,5.60
2023-10-21T15:18:11.095Z,5.30
2023-10-21T15:20:38.217Z,6.20
2023-10-21T15:23:04.953Z,7.10
2023-10-21T15:25:31.899Z,5.60
2023-10-21T15:27:59.330Z,6.50
2023-10-21T15:30:26.502Z,5.40
2023-10-21T15:32:56.900Z,6.20
2023-10-21T15:35:24.497Z,6.10
2023-10-21T15:37:51.481Z,6.40
2023-10-21T15:40:20.084Z,5.90
2023-10-21T15:42:47.159Z,6.20
2023-10-21T15:45:14.764Z,5.00
2023-10-21T15:47:42.196Z,6.20
2023-10-21T15:50:10.749Z,5.30
2023-10-21T15:52:38.010Z,6.00
2023-10-21T15:55:05.784Z,6.40
2023-10-21T15:57:33.694Z,5.70
2023-10-21T16:00:03.411Z,5.40
2023-10-21T16:02:37.802Z,6.00
2023-10-21T16:05:05.334Z,6.40
2023-10-21T16:09:59.682Z,5.60
2023-10-21T16:12:28.537Z,6.10
2023-10-21T16:14:55.692Z,5.90
2023-10-21T16:17:23.329Z,6.00
2023-10-21T16:19:50.293Z,6.00
2023-10-21T16:22:17.328Z,6.90
2023-10-21T16:24:44.417Z,6.40
2023-10-21T16:27:11.489Z,5.60
2023-10-21T16:29:38.902Z,5.90
2023-10-21T16:32:07.410Z,6.50
2023-10-21T16:34:34.368Z,6.30
2023-10-21T16:37:01.548Z,6.60
2023-10-21T16:39:28.720Z,5.90
2023-10-21T16:41:56.060Z,6.10
2023-10-21T16:44:23.167Z,6.70
2023-10-21T16:46:50.162Z,5.90
2023-10-21T16:49:17.082Z,7.20
2023-10-21T16:51:44.505Z,5.40
2023-10-21T16:54:13.514Z,6.00
2023-10-21T16:56:40.472Z,5.80
2023-10-21T16:59:07.823Z,5.70
2023-10-21T17:01:34.918Z,5.80
2023-10-21T17:04:02.008Z,5.20
2023-10-21T17:06:31.619Z,5.80
2023-10-21T17:09:00.408Z,5.80
2023-10-21T17:11:27.330Z,6.50
2023-10-21T17:13:56.849Z,6.00
2023-10-21T17:16:25.846Z,6.90
2023-10-21T17:18:53.139Z,5.20
2023-10-21T17:21:20.077Z,6.00
2023-10-21T17:23:49.590Z,6.50
2023-10-21T17:26:17.940Z,6.20
2023-10-21T17:28:44.977Z,6.60
2023-10-21T17:31:12.286Z,6.90
2023-10-21T17:33:50.012Z,6.50
2023-10-21T17:36:18.508Z,5.20
2023-10-21T17:38:45.517Z,5.30
2023-10-21T17:41:12.326Z,6.10
2023-10-21T17:43:39.749Z,4.80
2023-10-21T17:46:06.722Z,6.60
2023-10-21T17:48:34.027Z,5.80
2023-10-21T17:51:01.223Z,6.20
2023-10-21T17:53:28.556Z,6.40
2023-10-21T17:55:55.718Z,6.80
2023-10-21T17:58:22.753Z,6.90
2023-10-21T18:00:49.840Z,5.90
2023-10-21T18:03:17.285Z,4.60
2023-10-21T18:05:46.462Z,4.80
2023-10-21T18:08:13.808Z,4.90
2023-10-21T18:10:40.745Z,4.50
2023-10-21T18:13:07.627Z,5.20
2023-10-21T18:15:34.568Z,5.30
2023-10-21T18:18:03.199Z,5.30
2023-10-21T18:20:30.369Z,4.90
2023-10-21T18:22:59.154Z,5.20
2023-10-21T18:25:27.546Z,5.30
2023-10-21T18:27:55.677Z,4.60
2023-10-21T18:30:23.425Z,4.10
2023-10-21T18:32:50.783Z,4.40
2023-10-21T18:35:17.866Z,3.60
2023-10-21T18:37:44.930Z,4.80
2023-10-21T18:40:12.086Z,3.70
2023-10-21T18:42:39.005Z,4.80
2023-10-21T18:45:07.009Z,3.80
2023-10-21T18:47:34.234Z,3.70
2023-10-21T18:50:01.305Z,4.10
2023-10-21T18:52:28.512Z,3.80
2023-10-21T18:54:55.387Z,4.60
2023-10-21T18:57:24.380Z,4.30
2023-10-21T18:59:54.196Z,4.40
2023-10-21T19:02:21.640Z,3.70
2023-10-21T19:04:48.881Z,4.00
2023-10-21T19:07:15.805Z,3.80
2023-10-21T19:09:43.518Z,4.60
2023-10-21T19:12:10.733Z,3.80
2023-10-21T19:14:38.828Z,4.00
2023-10-21T19:17:05.905Z,4.10
2023-10-21T19:19:34.256Z,4.20
2023-10-21T19:22:01.301Z,4.40
2023-10-21T19:24:28.467Z,3.80
2023-10-21T19:26:55.445Z,4.20
2023-10-21T19:29:22.357Z,3.40
2023-10-21T19:31:50.785Z,3.60
2023-10-21T19:34:18.192Z,3.40
2023-10-21T19:36:45.696Z,4.10
2023-10-21T19:39:13.199Z,4.40
2023-10-21T19:41:40.436Z,4.30
2023-10-21T19:47:04.333Z,3.30
2023-10-21T19:49:34.439Z,4.30
2023-10-21T19:52:03.133Z,3.90
2023-10-21T19:54:32.145Z,3.80
2023-10-21T19:56:59.081Z,4.00
2023-10-21T19:59:26.224Z,4.30
2023-10-21T20:01:54.905Z,3.80
2023-10-21T20:04:21.971Z,4.40
2023-10-21T20:06:49.266Z,3.80
2023-10-21T20:09:16.607Z,4.10
2023-10-21T20:11:45.253Z,3.90
2023-10-21T20:14:13.543Z,4.50
2023-10-21T20:16:40.790Z,4.60
2023-10-21T20:19:07.711Z,3.90
2023-10-21T20:21:40.304Z,4.00
2023-10-21T20:24:07.956Z,4.00
2023-10-21T20:26:35.536Z,3.20
2023-10-21T20:29:02.870Z,4.40
2023-10-21T20:31:32.270Z,4.80
2023-10-21T20:34:00.549Z,5.70
2023-10-21T20:36:28.490Z,6.70
2023-10-21T20:38:56.375Z,6.00
2023-10-21T20:41:23.327Z,6.10
2023-10-21T20:43:52.114Z,6.80
2023-10-21T20:46:19.368Z,5.40
2023-10-21T20:48:46.576Z,4.50
2023-10-21T20:51:17.184Z,4.90
2023-10-21T20:53:44.250Z,5.60
2023-10-21T20:56:17.897Z,4.90
2023-10-21T20:58:44.831Z,4.00
2023-10-21T21:01:13.184Z,4.60
2023-10-21T21:03:43.528Z,4.40
2023-10-21T21:06:10.598Z,5.20
2023-10-21T21:08:37.736Z,5.10
2023-10-21T21:11:05.302Z,5.90
2023-10-21T21:13:32.245Z,5.30
2023-10-21T21:15:59.262Z,4.30
2023-10-21T21:18:26.772Z,3.20
2023-10-21T21:20:55.946Z,3.90
2023-10-21T21:23:23.078Z,3.80
2023-10-21T21:25:50.129Z,3.50
2023-10-21T21:28:17.796Z,4.00
2023-10-21T21:30:52.057Z,3.70
2023-10-21T21:33:22.477Z,3.90
2023-10-21T21:35:59.414Z,4.00
2023-10-21T21:38:27.581Z,4.20
2023-10-21T21:40:54.653Z,4.20
2023-10-21T21:43:21.915Z,4.30
2023-10-21T21:45:49.073Z,3.80
2023-10-21T21:48:16.213Z,3.70
2023-10-21T21:50:43.125Z,3.70
2023-10-21T21:53:12.115Z,4.10
2023-10-21T21:55:41.418Z,3.60
2023-10-21T21:58:08.260Z,3.90
2023-10-21T22:00:40.694Z,4.60
2023-10-21T22:03:07.857Z,3.70
2023-10-21T22:05:36.043Z,3.80
2023-10-21T22:08:04.651Z,3.60
2023-10-21T22:10:33.459Z,3.70
2023-10-21T22:13:01.297Z,3.20
2023-10-21T22:15:28.551Z,4.10
2023-10-21T22:17:55.737Z,3.50
2023-10-21T22:20:24.350Z,3.70
2023-10-21T22:22:54.122Z,4.40
2023-10-21T22:25:39.190Z,3.70
2023-10-21T22:28:12.574Z,3.70
2023-10-21T22:30:41.456Z,3.40
2023-10-21T22:33:08.722Z,3.70
2023-10-21T22:35:36.216Z,3.20
2023-10-21T22:38:03.624Z,3.10
2023-10-21T22:40:30.570Z,3.20
2023-10-21T22:42:57.733Z,4.00
2023-10-21T22:45:26.297Z,3.90
2023-10-21T22:47:53.461Z,6.10
2023-10-21T22:50:21.950Z,7.50
2023-10-21T22:52:48.992Z,6.90
2023-10-21T22:55:16.143Z,6.20
2023-10-21T22:57:45.207Z,6.00
2023-10-21T23:00:13.297Z,5.30
2023-10-21T23:02:43.349Z,5.80
2023-10-21T23:05:11.020Z,5.40
2023-10-21T23:07:38.752Z,6.70
2023-10-21T23:10:22.682Z,6.40
2023-10-21T23:12:50.982Z,6.10
2023-10-21T23:15:18.725Z,6.60
2023-10-21T23:17:46.547Z,6.80
2023-10-21T23:20:13.958Z,5.90
2023-10-21T23:22:41.219Z,6.00
2023-10-21T23:25:11.336Z,5.60
2023-10-21T23:27:39.286Z,7.50
2023-10-21T23:30:14.942Z,6.80
2023-10-21T23:32:42.326Z,7.10
2023-10-21T23:35:09.958Z,5.90
2023-10-21T23:37:39.508Z,6.00
2023-10-21T23:40:10.592Z,5.90
2023-10-21T23:42:39.268Z,5.10
2023-10-21T23:45:07.889Z,6.00
2023-10-21T23:47:35.726Z,6.50
2023-10-21T23:50:03.083Z,6.30
2023-10-21T23:52:31.465Z,6.50
2023-10-21T23:54:58.314Z,6.60
2023-10-21T23:57:25.333Z,6.40
2023-10-21T23:59:52.406Z,6.40
